Spring Valley, Wisconsin
Current Conditions -  °F | °C
As of 10:15 AM on Wednesday 26 Nov 2014 (Local Time) from KLUM Reporting Station
Overcast Overcast  
Wind Chill: 19°   Ceiling: 5000
Heat Index: 25°   Visibility: 10mi
Dew Point: 18°   Wind: 5mph
Humidity: 75%   Direction: 340°NNW
Pressure: 30.17"   Gusts: NA
Location:  44.85°N, 92.24°W
Report Text: KLUM 261615Z AUTO 34004KT 10SM SCT039 OVC050 M04/M08 A3017 RMK AO2 T10411079
Loading
Personal Weather Stations






























Interactive Weather Map New forecast layout! Learn more

10-Day Weather Forecast

Advertisements
Track Severe Weather on mobile